Time;durP1;ratioP1;P1;durP2;ratioP2;P2;SDS_P1;SDS_P2;PMS_P1;PMS_P2;Temp;Humidity;BMP_temperature;BMP_pressure;BME280_temperature;BME280_humidity;BME280_pressure;Samples;Min_cycle;Max_cycle;Signal;HPM_P1;HPM_P2
2021/12/11 00:00:09;;;;;;;1.20;0.90;;;6.80;99.90;;;;;;5051214;28;20237;-55
2021/12/11 00:02:36;;;;;;;2.00;0.87;;;6.80;99.90;;;;;;5052017;28;20263;-56
2021/12/11 00:05:03;;;;;;;2.77;1.10;;;6.80;99.90;;;;;;5051847;28;20213;-56
2021/12/11 00:07:31;;;;;;;1.43;1.00;;;6.80;99.90;;;;;;5052135;28;20213;-56
2021/12/11 00:10:06;;;;;;;1.77;1.10;;;6.80;99.90;;;;;;5051995;28;20225;-57
2021/12/11 00:12:36;;;;;;;1.47;0.80;;;6.90;99.90;;;;;;5051871;28;20731;-55
2021/12/11 00:15:09;;;;;;;1.67;0.90;;;6.90;99.90;;;;;;5051607;28;20296;-55
2021/12/11 00:17:36;;;;;;;1.60;0.90;;;6.70;99.90;;;;;;5052034;28;20205;-60
2021/12/11 00:20:06;;;;;;;2.40;0.77;;;6.70;99.90;;;;;;5049005;28;20237;-55
2021/12/11 00:22:33;;;;;;;1.10;0.80;;;6.60;99.90;;;;;;5051841;28;20209;-55
2021/12/11 00:25:08;;;;;;;3.67;0.90;;;6.60;99.90;;;;;;5051478;28;20213;-59
2021/12/11 00:27:38;;;;;;;4.13;0.90;;;6.60;99.90;;;;;;5051481;28;20258;-59
2021/12/11 00:30:07;;;;;;;2.70;1.10;;;6.50;99.90;;;;;;5051758;28;20221;-58
2021/12/11 00:32:36;;;;;;;2.00;1.17;;;6.50;99.90;;;;;;5051686;28;20209;-57
2021/12/11 00:35:09;;;;;;;2.60;1.40;;;6.50;99.90;;;;;;5051305;28;20628;-58
2021/12/11 00:37:36;;;;;;;2.00;0.90;;;6.50;99.90;;;;;;5051614;28;20620;-56
2021/12/11 00:40:10;;;;;;;2.50;0.97;;;6.50;99.90;;;;;;5051052;28;20651;-57
2021/12/11 00:42:38;;;;;;;2.67;0.70;;;6.40;99.90;;;;;;5051821;28;20205;-57
2021/12/11 00:45:16;;;;;;;1.30;0.80;;;6.30;99.90;;;;;;5051434;28;20206;-58
2021/12/11 00:47:46;;;;;;;0.80;0.80;;;6.30;99.90;;;;;;5051556;28;20241;-57
2021/12/11 00:50:15;;;;;;;1.00;0.70;;;6.20;99.90;;;;;;5051388;28;20235;-57
2021/12/11 00:52:45;;;;;;;2.03;1.00;;;6.10;99.90;;;;;;5051221;28;20210;-57
2021/12/11 00:55:21;;;;;;;2.03;1.10;;;6.10;99.90;;;;;;5051357;28;20259;-57
2021/12/11 00:57:49;;;;;;;1.33;1.10;;;6.10;99.90;;;;;;5051544;28;20208;-56
2021/12/11 01:00:20;;;;;;;2.13;1.10;;;6.00;99.90;;;;;;5051220;28;20292;-55
2021/12/11 01:02:50;;;;;;;1.30;1.00;;;6.00;99.90;;;;;;5051385;28;20224;-55
2021/12/11 01:05:17;;;;;;;3.20;1.17;;;5.90;99.90;;;;;;5051073;28;20213;-57
2021/12/11 01:07:44;;;;;;;3.87;2.37;;;5.80;99.90;;;;;;5051277;28;20674;-55
2021/12/11 01:10:14;;;;;;;2.20;1.17;;;5.70;99.90;;;;;;5051427;28;20222;-55
2021/12/11 01:12:48;;;;;;;1.20;1.10;;;5.70;99.90;;;;;;5055080;28;20217;-56
2021/12/11 01:15:19;;;;;;;1.93;1.23;;;5.70;99.90;;;;;;5054780;28;20206;-55
2021/12/11 01:17:59;;;;;;;1.73;1.20;;;5.60;99.90;;;;;;5054782;28;20796;-55
2021/12/11 01:20:36;;;;;;;2.70;1.17;;;5.70;99.90;;;;;;5054710;28;20232;-55
2021/12/11 01:23:14;;;;;;;1.73;1.30;;;5.70;99.90;;;;;;5054825;28;20233;-55
2021/12/11 01:25:41;;;;;;;2.20;1.30;;;5.70;99.90;;;;;;5054499;28;20212;-55
2021/12/11 01:28:10;;;;;;;1.47;1.17;;;5.60;99.90;;;;;;5054494;28;20213;-56
2021/12/11 01:30:40;;;;;;;1.97;1.20;;;5.60;99.90;;;;;;5054529;28;20607;-56
2021/12/11 01:33:09;;;;;;;1.37;1.07;;;5.50;99.90;;;;;;5054594;28;20209;-55
2021/12/11 01:35:36;;;;;;;2.13;1.30;;;5.50;99.90;;;;;;5054285;28;20210;-57
2021/12/11 01:38:08;;;;;;;1.70;1.40;;;5.60;99.90;;;;;;5054482;28;20589;-54
2021/12/11 01:40:36;;;;;;;1.50;1.40;;;5.60;99.90;;;;;;5053966;28;20283;-56
2021/12/11 01:43:06;;;;;;;1.40;1.30;;;5.60;99.90;;;;;;5054443;28;20209;-56
2021/12/11 01:45:36;;;;;;;1.67;1.30;;;5.60;99.90;;;;;;5054345;28;20205;-56
2021/12/11 01:48:04;;;;;;;1.70;1.47;;;5.60;99.90;;;;;;5054443;28;20205;-56
2021/12/11 01:50:34;;;;;;;1.40;1.30;;;5.60;99.90;;;;;;5054441;28;20229;-54
2021/12/11 01:53:06;;;;;;;1.40;1.20;;;5.70;99.90;;;;;;5054221;28;20210;-56
2021/12/11 01:55:39;;;;;;;1.57;1.37;;;5.50;99.90;;;;;;5054318;28;20210;-54
2021/12/11 01:58:12;;;;;;;2.70;1.63;;;5.60;99.90;;;;;;5054243;28;20666;-54
2021/12/11 02:00:45;;;;;;;0.97;0.93;;;5.60;99.90;;;;;;5054006;28;20229;-54
2021/12/11 02:03:15;;;;;;;1.73;1.47;;;5.70;99.90;;;;;;5054154;28;20210;-54
2021/12/11 02:05:42;;;;;;;1.77;1.20;;;5.70;99.90;;;;;;5054029;28;20213;-54
2021/12/11 02:08:14;;;;;;;2.37;2.17;;;5.70;99.90;;;;;;5054096;28;20213;-56
2021/12/11 02:10:44;;;;;;;1.20;1.10;;;5.80;99.90;;;;;;5054048;28;20229;-55
2021/12/11 02:13:16;;;;;;;1.80;1.07;;;5.80;99.90;;;;;;5054042;28;20216;-55
2021/12/11 02:15:48;;;;;;;2.10;1.37;;;5.80;99.90;;;;;;5054087;28;20205;-55
2021/12/11 02:18:19;;;;;;;2.50;1.60;;;5.70;99.90;;;;;;5054369;28;20263;-55
2021/12/11 02:20:51;;;;;;;1.80;1.30;;;5.60;99.90;;;;;;5055190;28;20253;-55
2021/12/11 02:23:19;;;;;;;1.33;1.03;;;5.70;99.90;;;;;;5053748;28;20630;-55
2021/12/11 02:25:50;;;;;;;1.57;1.20;;;5.60;99.90;;;;;;5054509;28;20674;-54
2021/12/11 02:28:21;;;;;;;1.10;1.00;;;5.60;99.90;;;;;;5054869;28;20233;-55
2021/12/11 02:30:51;;;;;;;1.13;1.03;;;5.70;99.90;;;;;;5054443;28;20225;-55
2021/12/11 02:33:26;;;;;;;1.37;1.13;;;5.60;99.90;;;;;;5053754;28;20213;-56
2021/12/11 02:35:56;;;;;;;2.43;1.30;;;5.70;99.90;;;;;;5053393;28;20238;-54
2021/12/11 02:38:30;;;;;;;1.30;1.20;;;5.70;99.90;;;;;;5053499;28;20214;-55
2021/12/11 02:41:01;;;;;;;2.40;1.40;;;5.70;99.90;;;;;;5053420;28;20619;-55
2021/12/11 02:43:32;;;;;;;1.10;1.00;;;5.70;99.90;;;;;;5053607;28;20205;-55
2021/12/11 02:46:03;;;;;;;1.43;1.33;;;5.70;99.90;;;;;;5053216;28;20272;-55
2021/12/11 02:48:36;;;;;;;1.43;1.10;;;5.70;99.90;;;;;;5053677;28;20661;-56
2021/12/11 02:51:10;;;;;;;1.20;1.10;;;5.70;99.90;;;;;;5053176;28;20275;-55
2021/12/11 02:53:42;;;;;;;1.40;1.30;;;5.70;99.90;;;;;;5053674;28;20628;-55
2021/12/11 02:56:13;;;;;;;1.10;1.00;;;5.70;99.90;;;;;;5053071;28;20267;-55
2021/12/11 02:58:43;;;;;;;1.93;1.20;;;5.70;99.90;;;;;;5053249;28;20213;-54
2021/12/11 03:01:21;;;;;;;1.20;1.10;;;5.70;99.90;;;;;;5052919;28;20221;-55
2021/12/11 03:03:53;;;;;;;1.57;1.30;;;5.70;99.90;;;;;;5053214;28;20213;-54
2021/12/11 03:06:23;;;;;;;1.30;1.20;;;5.70;99.90;;;;;;5053065;28;20216;-56
2021/12/11 03:08:55;;;;;;;1.30;1.20;;;5.70;99.90;;;;;;5053303;28;20586;-56
2021/12/11 03:11:24;;;;;;;2.23;1.30;;;5.70;99.90;;;;;;5053011;28;20229;-54
2021/12/11 03:13:54;;;;;;;1.77;1.37;;;5.60;99.90;;;;;;5052767;28;20212;-55
2021/12/11 03:16:23;;;;;;;1.20;1.10;;;5.70;99.90;;;;;;5053186;28;20217;-55
2021/12/11 03:18:50;;;;;;;1.23;1.13;;;5.70;99.90;;;;;;5052950;28;20205;-55
2021/12/11 03:21:17;;;;;;;1.30;1.20;;;5.70;99.90;;;;;;5052743;28;20283;-56
2021/12/11 03:23:44;;;;;;;1.50;1.40;;;5.70;99.90;;;;;;5052440;28;20251;-55
2021/12/11 03:26:12;;;;;;;1.40;1.30;;;5.70;99.90;;;;;;5052358;28;20208;-56
2021/12/11 03:28:39;;;;;;;1.50;1.40;;;5.70;99.90;;;;;;5052470;28;20209;-56
2021/12/11 03:31:08;;;;;;;1.80;1.50;;;5.70;99.90;;;;;;5052291;28;20225;-55
2021/12/11 03:33:38;;;;;;;1.90;1.80;;;5.70;99.90;;;;;;5052294;28;20214;-57
2021/12/11 03:36:07;;;;;;;2.07;1.87;;;5.70;99.90;;;;;;5052266;28;20476;-55
2021/12/11 03:38:35;;;;;;;2.07;1.90;;;5.70;99.90;;;;;;5052202;28;20212;-56
2021/12/11 03:41:03;;;;;;;2.07;1.90;;;5.80;99.90;;;;;;5052069;28;20245;-55
2021/12/11 03:43:32;;;;;;;2.20;2.00;;;5.80;99.90;;;;;;5052116;28;20213;-54
2021/12/11 03:46:04;;;;;;;2.93;2.63;;;5.80;99.90;;;;;;5052142;28;20205;-55
2021/12/11 03:48:35;;;;;;;2.50;2.30;;;5.80;99.90;;;;;;5052382;28;20210;-55
2021/12/11 03:51:05;;;;;;;1.83;1.73;;;5.90;99.90;;;;;;5052181;28;20275;-56
2021/12/11 03:53:33;;;;;;;2.10;1.93;;;5.80;99.90;;;;;;5052123;28;20213;-55
2021/12/11 03:56:03;;;;;;;2.37;2.10;;;5.80;99.90;;;;;;5051818;28;20208;-56
2021/12/11 03:58:31;;;;;;;2.23;2.03;;;5.80;99.90;;;;;;5052315;28;20206;-56
2021/12/11 04:01:06;;;;;;;2.50;2.27;;;5.90;99.90;;;;;;5051951;28;20225;-55
2021/12/11 04:03:35;;;;;;;2.23;2.07;;;6.00;99.90;;;;;;5051908;28;20730;-55
2021/12/11 04:06:07;;;;;;;2.73;2.53;;;6.00;99.90;;;;;;5051647;28;20437;-56
2021/12/11 04:08:40;;;;;;;2.70;2.50;;;5.90;99.90;;;;;;5051809;28;20210;-56
2021/12/11 04:11:08;;;;;;;2.83;2.27;;;5.90;99.90;;;;;;5051859;28;20701;-55
2021/12/11 04:13:36;;;;;;;2.40;2.20;;;5.90;99.90;;;;;;5051951;28;20616;-55
2021/12/11 04:16:04;;;;;;;2.70;2.50;;;5.90;99.90;;;;;;5051728;28;20201;-55
2021/12/11 04:18:31;;;;;;;2.53;2.30;;;5.90;99.90;;;;;;5051777;28;20689;-54
2021/12/11 04:20:58;;;;;;;2.80;2.40;;;5.90;99.90;;;;;;5052074;28;20229;-56
2021/12/11 04:23:25;;;;;;;2.80;2.60;;;6.00;99.90;;;;;;5052049;28;20206;-55
2021/12/11 04:25:54;;;;;;;2.60;2.40;;;6.00;99.90;;;;;;5051753;28;20256;-55
2021/12/11 04:28:22;;;;;;;3.20;2.97;;;6.00;99.90;;;;;;5052217;28;20209;-55
2021/12/11 04:30:55;;;;;;;2.60;2.40;;;6.00;99.90;;;;;;5052890;28;20251;-55
2021/12/11 04:33:22;;;;;;;3.87;2.90;;;6.00;99.90;;;;;;5051716;28;20301;-54
2021/12/11 04:35:49;;;;;;;3.20;2.90;;;6.00;99.90;;;;;;5051653;28;20235;-55
2021/12/11 04:38:16;;;;;;;3.63;3.17;;;6.00;99.90;;;;;;5051823;28;20205;-55
2021/12/11 04:40:48;;;;;;;3.30;3.00;;;6.00;99.90;;;;;;5051361;28;20710;-55
2021/12/11 04:43:19;;;;;;;3.33;3.03;;;6.00;99.90;;;;;;5051762;28;20214;-55
2021/12/11 04:45:49;;;;;;;3.77;3.20;;;6.10;99.90;;;;;;5052556;28;20205;-55
2021/12/11 04:48:26;;;;;;;3.33;3.03;;;6.10;99.90;;;;;;5055416;28;20213;-55
2021/12/11 04:50:59;;;;;;;2.73;2.53;;;6.10;99.90;;;;;;5055703;28;20236;-55
2021/12/11 04:53:42;;;;;;;3.37;2.93;;;6.00;99.90;;;;;;5055470;28;20217;-55
2021/12/11 04:56:34;;;;;;;3.57;3.27;;;5.90;99.90;;;;;;5055344;28;20288;-56
2021/12/11 04:59:23;;;;;;;4.37;3.30;;;5.90;99.90;;;;;;5055333;28;20708;-56
2021/12/11 05:02:02;;;;;;;5.23;3.47;;;5.90;99.90;;;;;;5055432;28;20225;-55
2021/12/11 05:04:42;;;;;;;3.90;3.60;;;6.00;99.90;;;;;;5055131;28;20282;-55
2021/12/11 05:07:22;;;;;;;4.80;3.83;;;6.00;99.90;;;;;;5055421;28;20205;-54
2021/12/11 05:09:56;;;;;;;4.40;4.03;;;6.10;99.90;;;;;;5055106;28;20730;-55
2021/12/11 05:12:33;;;;;;;4.20;3.87;;;6.10;99.90;;;;;;5054936;28;20748;-56
2021/12/11 05:15:01;;;;;;;4.23;3.83;;;6.10;99.90;;;;;;5054844;28;20278;-54
2021/12/11 05:17:27;;;;;;;4.90;4.50;;;6.20;99.90;;;;;;5054795;28;20641;-54
2021/12/11 05:19:56;;;;;;;4.53;4.13;;;6.20;99.90;;;;;;5054907;28;20221;-54
2021/12/11 05:22:23;;;;;;;7.60;3.40;;;6.20;99.90;;;;;;5055047;28;20213;-56
2021/12/11 05:24:55;;;;;;;4.27;3.87;;;6.10;99.90;;;;;;5054569;28;20221;-57
2021/12/11 05:27:23;;;;;;;3.67;3.37;;;6.10;99.90;;;;;;5054777;28;20202;-56
2021/12/11 05:29:51;;;;;;;3.60;3.30;;;6.10;99.90;;;;;;5054622;28;20229;-54
2021/12/11 05:32:20;;;;;;;4.87;4.10;;;6.00;99.90;;;;;;5054906;28;20220;-55
2021/12/11 05:34:47;;;;;;;4.17;3.77;;;6.00;99.90;;;;;;5054577;28;20201;-55
2021/12/11 05:37:15;;;;;;;4.13;3.73;;;5.90;99.90;;;;;;5054548;28;20221;-56
2021/12/11 05:39:42;;;;;;;4.40;4.00;;;5.90;99.90;;;;;;5054352;28;20648;-56
2021/12/11 05:42:09;;;;;;;4.17;3.77;;;5.90;99.90;;;;;;5054950;28;20210;-57
2021/12/11 05:44:36;;;;;;;7.20;4.20;;;5.90;99.90;;;;;;5054542;28;20259;-57
2021/12/11 05:47:05;;;;;;;5.20;4.70;;;6.00;99.90;;;;;;5054334;28;20677;-57
2021/12/11 05:49:33;;;;;;;5.23;3.90;;;6.00;99.90;;;;;;5054477;28;20271;-57
2021/12/11 05:52:00;;;;;;;4.00;3.60;;;6.00;99.90;;;;;;5054406;28;20228;-57
2021/12/11 05:54:29;;;;;;;5.00;4.03;;;6.00;99.90;;;;;;5054135;28;20209;-57
2021/12/11 05:57:06;;;;;;;5.83;4.70;;;5.90;99.90;;;;;;5054388;28;20205;-59
2021/12/11 05:59:33;;;;;;;5.97;4.33;;;5.90;99.90;;;;;;5054510;28;20292;-57
2021/12/11 06:02:06;;;;;;;4.40;4.00;;;6.00;99.90;;;;;;5054071;28;20236;-57
2021/12/11 06:04:34;;;;;;;5.67;3.83;;;6.00;99.90;;;;;;5053892;28;20225;-56
2021/12/11 06:07:04;;;;;;;4.40;4.00;;;6.00;99.90;;;;;;5053978;28;20229;-57
2021/12/11 06:09:33;;;;;;;3.77;3.47;;;5.90;99.90;;;;;;5054233;28;20210;-57
2021/12/11 06:12:04;;;;;;;4.60;3.63;;;5.90;99.90;;;;;;5054024;28;20221;-57
2021/12/11 06:14:32;;;;;;;3.70;3.40;;;5.80;99.90;;;;;;5053850;28;20214;-56
2021/12/11 06:17:01;;;;;;;4.13;3.73;;;5.70;99.90;;;;;;5053842;28;20206;-57
2021/12/11 06:19:28;;;;;;;3.93;3.63;;;5.70;99.90;;;;;;5053792;28;20252;-57
2021/12/11 06:21:57;;;;;;;4.47;4.07;;;5.70;99.90;;;;;;5053582;28;20229;-56
2021/12/11 06:24:26;;;;;;;5.87;4.27;;;5.70;99.90;;;;;;5053964;28;20259;-57
2021/12/11 06:26:56;;;;;;;5.10;4.40;;;5.80;99.90;;;;;;5053558;28;20568;-57
2021/12/11 06:29:23;;;;;;;4.90;4.50;;;5.80;99.90;;;;;;5054028;28;20210;-57
2021/12/11 06:31:52;;;;;;;4.63;4.20;;;5.80;99.90;;;;;;5053684;28;20267;-57
2021/12/11 06:34:19;;;;;;;4.33;3.93;;;5.80;99.90;;;;;;5053368;28;20216;-57
2021/12/11 06:36:47;;;;;;;4.83;4.43;;;5.90;99.90;;;;;;5053595;28;20217;-56
2021/12/11 06:39:18;;;;;;;4.67;4.27;;;6.00;99.90;;;;;;5053638;28;20206;-57
2021/12/11 06:41:49;;;;;;;5.27;4.60;;;6.00;99.90;;;;;;5053193;28;20272;-57
2021/12/11 06:44:17;;;;;;;5.77;5.20;;;6.00;99.90;;;;;;5053408;28;20205;-57
2021/12/11 06:46:44;;;;;;;5.63;5.03;;;6.00;99.90;;;;;;5052904;28;20213;-57
2021/12/11 06:49:12;;;;;;;5.93;5.40;;;6.00;99.90;;;;;;5053396;28;20232;-57
2021/12/11 06:51:39;;;;;;;6.60;6.00;;;6.00;99.90;;;;;;5053221;28;20222;-57
2021/12/11 06:54:08;;;;;;;6.67;5.43;;;6.00;99.90;;;;;;5053222;28;20210;-56
2021/12/11 06:56:36;;;;;;;6.77;6.13;;;6.00;99.90;;;;;;5052961;28;20202;-57
2021/12/11 06:59:04;;;;;;;6.30;5.70;;;5.90;99.90;;;;;;5052995;28;20696;-57
2021/12/11 07:01:33;;;;;;;5.97;5.43;;;5.90;99.90;;;;;;5052975;28;20299;-57
2021/12/11 07:04:01;;;;;;;5.53;5.03;;;5.80;99.90;;;;;;5053188;28;20208;-57
2021/12/11 07:06:31;;;;;;;5.73;4.90;;;5.70;99.90;;;;;;5053118;28;20205;-57
2021/12/11 07:08:58;;;;;;;5.50;5.00;;;5.70;99.90;;;;;;5052373;28;20666;-57
2021/12/11 07:11:25;;;;;;;6.63;5.67;;;5.70;99.90;;;;;;5052718;28;20287;-58
2021/12/11 07:13:52;;;;;;;6.90;6.30;;;5.70;99.90;;;;;;5052704;28;20235;-57
2021/12/11 07:16:20;;;;;;;6.53;5.93;;;5.70;99.90;;;;;;5052718;28;20209;-57
2021/12/11 07:18:48;;;;;;;11.43;9.37;;;5.80;99.90;;;;;;5052753;28;20237;-57
2021/12/11 07:21:15;;;;;;;6.30;5.73;;;5.80;99.90;;;;;;5052608;28;20229;-57
2021/12/11 07:23:47;;;;;;;7.20;5.77;;;5.80;99.90;;;;;;5052506;28;20677;-58
2021/12/11 07:26:18;;;;;;;6.40;5.83;;;5.90;99.90;;;;;;5052323;28;20209;-56
2021/12/11 07:28:49;;;;;;;8.60;7.53;;;5.90;99.90;;;;;;5052589;28;20221;-56
2021/12/11 07:31:17;;;;;;;6.70;6.00;;;5.90;99.90;;;;;;5052388;28;20221;-57
2021/12/11 07:33:43;;;;;;;9.40;6.27;;;5.90;99.90;;;;;;5052388;28;20210;-57
2021/12/11 07:36:12;;;;;;;7.30;6.60;;;5.90;99.90;;;;;;5052189;28;20209;-57
2021/12/11 07:38:38;;;;;;;7.90;7.13;;;6.00;99.90;;;;;;5052305;28;20206;-57
2021/12/11 07:41:08;;;;;;;7.63;6.93;;;5.90;99.90;;;;;;5053167;28;20283;-56
2021/12/11 07:43:37;;;;;;;7.77;6.97;;;6.00;99.90;;;;;;5054167;28;20210;-57
2021/12/11 07:46:05;;;;;;;8.07;7.27;;;6.00;99.90;;;;;;5053671;28;20588;-57
2021/12/11 07:48:32;;;;;;;8.47;7.63;;;6.00;99.90;;;;;;5053234;28;20581;-57
2021/12/11 07:50:59;;;;;;;9.93;7.20;;;6.00;99.90;;;;;;5052205;28;20218;-58
2021/12/11 07:53:27;;;;;;;8.50;7.70;;;6.00;99.90;;;;;;5051980;28;20708;-57
2021/12/11 07:55:54;;;;;;;9.03;8.07;;;6.10;99.90;;;;;;5051729;28;20689;-57
2021/12/11 07:58:21;;;;;;;9.30;7.80;;;6.20;99.90;;;;;;5052155;28;20209;-58
2021/12/11 08:00:49;;;;;;;9.63;8.10;;;6.20;99.90;;;;;;5051930;28;20226;-57
2021/12/11 08:03:18;;;;;;;9.67;8.10;;;6.20;99.90;;;;;;5051935;28;20620;-56
2021/12/11 08:05:47;;;;;;;9.63;7.87;;;6.20;99.90;;;;;;5051737;28;20351;-57
2021/12/11 08:08:15;;;;;;;9.43;7.80;;;6.30;99.90;;;;;;5051676;28;20689;-56
2021/12/11 08:10:47;;;;;;;8.60;7.70;;;6.30;99.90;;;;;;5052072;28;20310;-57
2021/12/11 08:13:14;;;;;;;8.93;8.03;;;6.30;99.90;;;;;;5051910;28;20217;-57
2021/12/11 08:15:42;;;;;;;8.70;7.90;;;6.30;99.90;;;;;;5052618;28;20232;-57
2021/12/11 08:18:11;;;;;;;8.90;8.00;;;6.30;99.90;;;;;;5052855;28;20239;-57
2021/12/11 08:20:39;;;;;;;9.63;7.90;;;6.30;99.90;;;;;;5052590;28;20228;-58
2021/12/11 08:23:08;;;;;;;8.33;7.50;;;6.20;99.90;;;;;;5055960;28;20255;-57
2021/12/11 08:25:39;;;;;;;9.33;7.97;;;6.20;99.90;;;;;;5055831;28;20305;-57
2021/12/11 08:28:08;;;;;;;17.63;14.75;;;6.20;99.90;;;;;;5054390;28;20793;-60
2021/12/11 08:30:39;;;;;;;9.13;8.20;;;6.20;99.90;;;;;;5053769;28;20244;-61
2021/12/11 08:33:07;;;;;;;9.87;7.20;;;6.30;99.90;;;;;;5055451;28;20232;-62
2021/12/11 08:35:34;;;;;;;7.87;7.17;;;6.20;99.90;;;;;;5055607;28;20291;-60
2021/12/11 08:38:03;;;;;;;8.37;7.57;;;6.20;99.90;;;;;;5055757;28;20739;-61
2021/12/11 08:40:32;;;;;;;7.83;7.13;;;6.30;99.90;;;;;;5055435;28;20615;-59
2021/12/11 08:43:01;;;;;;;8.63;7.53;;;6.30;99.90;;;;;;5055898;28;20213;-61
2021/12/11 08:45:44;;;;;;;8.07;7.30;;;6.30;99.90;;;;;;5052338;28;20206;-59
2021/12/11 08:48:12;;;;;;;8.47;7.47;;;6.30;99.90;;;;;;5048780;28;20632;-60
2021/12/11 08:50:39;;;;;;;7.67;6.60;;;6.40;99.90;;;;;;5055582;28;20704;-59
2021/12/11 08:53:06;;;;;;;8.60;7.40;;;6.50;99.90;;;;;;5055101;28;20232;-61
2021/12/11 08:55:39;;;;;;;7.80;7.10;;;6.50;99.90;;;;;;5055220;28;20213;-58
2021/12/11 08:58:08;;;;;;;7.83;7.03;;;6.60;99.90;;;;;;5055286;28;20696;-59
2021/12/11 09:00:41;;;;;;;8.77;7.87;;;6.70;99.90;;;;;;5055411;28;20226;-58
2021/12/11 09:03:11;;;;;;;8.80;7.53;;;6.80;99.90;;;;;;5055370;28;20259;-59
2021/12/11 09:05:45;;;;;;;14.33;10.77;;;6.90;99.90;;;;;;5055181;28;20263;-58
2021/12/11 09:08:15;;;;;;;9.93;8.20;;;7.00;99.90;;;;;;5055199;28;20216;-59
2021/12/11 09:10:50;;;;;;;10.03;7.50;;;6.80;99.90;;;;;;5055207;28;20280;-65
2021/12/11 09:13:22;;;;;;;8.60;6.80;;;6.70;99.90;;;;;;5055246;28;20235;-58
2021/12/11 09:15:58;;;;;;;9.37;7.20;;;6.70;99.90;;;;;;5054740;28;20671;-58
2021/12/11 09:18:28;;;;;;;9.33;8.33;;;6.60;99.90;;;;;;5054940;28;20205;-58
2021/12/11 09:20:59;;;;;;;8.37;7.47;;;6.70;99.90;;;;;;5054591;28;20229;-57
2021/12/11 09:23:31;;;;;;;8.03;7.23;;;6.70;99.90;;;;;;5055044;28;20221;-58
2021/12/11 09:26:01;;;;;;;9.07;8.13;;;6.80;99.90;;;;;;5054461;28;20739;-58
2021/12/11 09:28:31;;;;;;;7.77;7.00;;;6.70;99.90;;;;;;5051532;28;20217;-58
2021/12/11 09:31:05;;;;;;;7.70;7.00;;;6.80;99.90;;;;;;5053970;28;20230;-58
2021/12/11 09:33:36;;;;;;;10.00;7.73;;;6.90;99.90;;;;;;5054194;28;20213;-58
2021/12/11 09:36:07;;;;;;;8.50;7.50;;;7.00;99.90;;;;;;5054284;28;20206;-58
2021/12/11 09:38:39;;;;;;;7.93;7.07;;;7.10;99.90;;;;;;5054291;28;20217;-58
2021/12/11 09:41:21;;;;;;;12.50;10.00;;;7.10;99.90;;;;;;5054024;28;20634;-58
2021/12/11 09:43:51;;;;;;;8.90;8.00;;;7.20;99.90;;;;;;5054266;28;20288;-58
2021/12/11 09:46:21;;;;;;;9.73;7.33;;;7.20;99.90;;;;;;5054086;28;20206;-58
2021/12/11 09:48:49;;;;;;;8.37;7.53;;;7.30;99.90;;;;;;5054123;28;20206;-61
2021/12/11 09:51:19;;;;;;;7.80;7.00;;;7.40;99.90;;;;;;5054493;28;20253;-60
2021/12/11 09:53:49;;;;;;;7.97;7.17;;;7.20;99.90;;;;;;5054308;28;20556;-60
2021/12/11 09:56:22;;;;;;;9.20;8.30;;;7.20;99.90;;;;;;5053788;28;20201;-59
2021/12/11 09:58:50;;;;;;;8.53;7.73;;;7.10;99.90;;;;;;5054188;28;20267;-59
2021/12/11 10:01:21;;;;;;;8.73;7.83;;;7.10;99.90;;;;;;5054143;28;20279;-59
2021/12/11 10:03:55;;;;;;;8.70;7.80;;;7.10;99.90;;;;;;5054146;28;20215;-59
2021/12/11 10:06:41;;;;;;;8.77;7.97;;;7.10;99.90;;;;;;5053937;28;20208;-58
2021/12/11 10:09:18;;;;;;;10.37;8.73;;;7.10;99.90;;;;;;5054092;28;20241;-60
2021/12/11 10:11:51;;;;;;;8.73;7.67;;;7.10;99.90;;;;;;5053811;28;20222;-59
2021/12/11 10:14:22;;;;;;;8.40;7.30;;;7.10;99.90;;;;;;5053642;28;20232;-60
2021/12/11 10:16:52;;;;;;;7.10;6.40;;;7.20;99.90;;;;;;5053423;28;20677;-60
2021/12/11 10:19:24;;;;;;;7.77;6.97;;;7.00;99.90;;;;;;5053641;28;20212;-61
2021/12/11 10:21:55;;;;;;;9.73;8.67;;;6.80;99.90;;;;;;5053526;28;20363;-61
2021/12/11 10:24:25;;;;;;;8.10;7.30;;;6.90;99.90;;;;;;5053469;28;20619;-61
2021/12/11 10:26:53;;;;;;;8.50;7.40;;;7.00;99.90;;;;;;5053306;28;20789;-61
2021/12/11 10:29:22;;;;;;;9.27;7.10;;;7.00;99.90;;;;;;5053523;28;20301;-60
2021/12/11 10:31:53;;;;;;;8.03;7.23;;;7.20;99.90;;;;;;5053312;28;20229;-60
2021/12/11 10:34:24;;;;;;;8.80;7.90;;;7.20;99.90;;;;;;5053563;28;20279;-60
2021/12/11 10:36:54;;;;;;;8.10;7.30;;;7.40;99.90;;;;;;5053290;28;20210;-59
2021/12/11 10:39:22;;;;;;;8.50;7.60;;;7.50;99.90;;;;;;5053688;28;20206;-59
2021/12/11 10:41:48;;;;;;;8.20;7.40;;;7.70;99.90;;;;;;5053167;28;20307;-58
2021/12/11 10:44:19;;;;;;;8.93;8.03;;;7.70;99.90;;;;;;5052302;28;20286;-57
2021/12/11 10:46:51;;;;;;;8.67;6.90;;;7.80;99.90;;;;;;5053187;28;20540;-57
2021/12/11 10:49:18;;;;;;;8.67;7.00;;;7.90;99.90;;;;;;5053378;28;20205;-58
2021/12/11 10:51:48;;;;;;;9.70;7.50;;;7.90;99.90;;;;;;5053482;28;20605;-58
2021/12/11 10:54:18;;;;;;;8.23;7.30;;;7.90;99.90;;;;;;5053200;28;20216;-58
2021/12/11 10:56:46;;;;;;;8.80;6.67;;;8.00;99.90;;;;;;5052591;28;20275;-58
2021/12/11 10:59:17;;;;;;;8.43;7.30;;;8.20;99.90;;;;;;5053390;28;20213;-58
2021/12/11 11:01:49;;;;;;;8.97;7.50;;;8.30;99.90;;;;;;5053051;28;20225;-58
2021/12/11 11:04:20;;;;;;;8.27;7.27;;;8.30;99.90;;;;;;5052897;28;20255;-58
2021/12/11 11:06:48;;;;;;;11.23;8.07;;;8.30;99.90;;;;;;5052539;28;20201;-57
2021/12/11 11:09:17;;;;;;;8.73;7.03;;;8.40;99.90;;;;;;5052941;28;20213;-58
2021/12/11 11:11:45;;;;;;;10.53;7.10;;;8.40;99.90;;;;;;5052871;28;20645;-57
2021/12/11 11:14:13;;;;;;;8.47;6.80;;;8.40;99.90;;;;;;5052992;28;20228;-59
2021/12/11 11:16:44;;;;;;;7.10;6.40;;;8.40;99.90;;;;;;5052600;28;20210;-58
2021/12/11 11:19:12;;;;;;;7.33;6.40;;;8.40;99.90;;;;;;5053164;28;20201;-59
2021/12/11 11:21:42;;;;;;;7.03;5.93;;;8.50;99.90;;;;;;5052250;28;20229;-57
2021/12/11 11:24:12;;;;;;;7.70;6.90;;;8.50;99.90;;;;;;5052533;28;20201;-60
2021/12/11 11:26:43;;;;;;;8.90;7.03;;;8.40;99.90;;;;;;5052267;28;20201;-61
2021/12/11 11:29:14;;;;;;;8.70;7.10;;;8.50;99.90;;;;;;5052592;28;20292;-59
2021/12/11 11:31:44;;;;;;;8.57;6.50;;;8.50;99.90;;;;;;5052335;28;20260;-59
2021/12/11 11:34:16;;;;;;;7.63;6.67;;;8.50;99.90;;;;;;5052299;28;20206;-58
2021/12/11 11:36:43;;;;;;;6.60;5.63;;;8.50;99.90;;;;;;5052354;28;20322;-59
2021/12/11 11:39:13;;;;;;;8.13;5.90;;;8.50;99.90;;;;;;5051893;28;20681;-59
2021/12/11 11:41:43;;;;;;;5.77;5.00;;;8.50;99.90;;;;;;5052494;28;20311;-57
2021/12/11 11:44:11;;;;;;;7.37;6.13;;;8.60;99.90;;;;;;5052110;28;20210;-57
2021/12/11 11:46:39;;;;;;;8.63;5.93;;;8.60;99.90;;;;;;5051832;28;20259;-57
2021/12/11 11:49:13;;;;;;;6.47;5.00;;;8.70;99.90;;;;;;5052171;28;20213;-56
2021/12/11 11:51:44;;;;;;;6.30;5.33;;;8.70;99.90;;;;;;5052258;28;20229;-59
2021/12/11 11:54:12;;;;;;;7.47;5.30;;;8.70;99.90;;;;;;5051991;28;20588;-58
2021/12/11 11:56:42;;;;;;;8.43;5.83;;;8.70;99.90;;;;;;5052457;28;20217;-58
2021/12/11 11:59:12;;;;;;;6.73;5.50;;;8.70;99.90;;;;;;5055127;28;20214;-59
2021/12/11 12:01:42;;;;;;;9.00;7.07;;;8.70;99.90;;;;;;5052925;28;20229;-58
2021/12/11 12:04:11;;;;;;;7.00;5.67;;;8.80;99.90;;;;;;5052263;28;20206;-58
2021/12/11 12:06:39;;;;;;;7.97;5.90;;;8.80;99.90;;;;;;5051638;28;20283;-57
2021/12/11 12:09:10;;;;;;;6.87;5.43;;;8.80;99.90;;;;;;5051753;28;20761;-58
2021/12/11 12:11:40;;;;;;;5.97;4.73;;;8.70;99.90;;;;;;5051648;28;20232;-57
2021/12/11 12:14:15;;;;;;;6.00;5.20;;;8.70;99.90;;;;;;5051997;28;20209;-58
2021/12/11 12:16:44;;;;;;;10.17;5.83;;;8.60;99.90;;;;;;5051592;28;20683;-57
2021/12/11 12:19:11;;;;;;;8.85;6.10;;;8.80;99.90;;;;;;5048665;28;20908;-58
2021/12/11 12:21:40;;;;;;;6.60;5.43;;;8.90;99.90;;;;;;5052072;28;20255;-58
2021/12/11 12:24:08;;;;;;;23.30;20.23;;;8.90;99.90;;;;;;5051260;28;20209;-60
2021/12/11 12:26:37;;;;;;;5.93;5.33;;;8.90;99.90;;;;;;5051607;28;20272;-58
2021/12/11 12:29:06;;;;;;;10.80;6.27;;;9.00;99.90;;;;;;5051703;28;20217;-60
2021/12/11 12:31:37;;;;;;;6.13;5.10;;;9.10;99.90;;;;;;5051336;28;20225;-58
2021/12/11 12:34:04;;;;;;;7.40;5.30;;;9.10;99.90;;;;;;5051681;28;20208;-58
2021/12/11 12:36:32;;;;;;;8.53;6.10;;;9.10;99.90;;;;;;5051808;28;20237;-58
2021/12/11 12:38:59;;;;;;;5.93;5.33;;;9.10;99.90;;;;;;5051521;28;20533;-60
2021/12/11 12:41:32;;;;;;;7.10;5.43;;;9.10;99.90;;;;;;5051274;28;20241;-59
2021/12/11 12:44:18;;;;;;;6.27;5.43;;;9.00;99.90;;;;;;5051381;28;20222;-62
2021/12/11 12:46:50;;;;;;;6.50;5.90;;;8.90;99.90;;;;;;5052025;28;20851;-55
2021/12/11 12:49:18;;;;;;;9.77;6.43;;;8.90;99.90;;;;;;5052721;28;20208;-57
2021/12/11 12:51:49;;;;;;;7.67;6.40;;;8.80;99.90;;;;;;5053057;28;20225;-63
2021/12/11 12:54:18;;;;;;;6.47;5.87;;;8.70;99.90;;;;;;5053005;28;20586;-56
2021/12/11 12:56:49;;;;;;;10.07;7.03;;;8.50;99.90;;;;;;5051301;28;20241;-61
2021/12/11 12:59:20;;;;;;;7.43;5.97;;;8.40;99.90;;;;;;5051277;28;20696;-64
2021/12/11 13:01:51;;;;;;;7.13;5.97;;;8.30;99.90;;;;;;5051604;28;20701;-64
2021/12/11 13:04:21;;;;;;;6.23;5.63;;;8.30;99.90;;;;;;5052287;28;20340;-65
2021/12/11 13:06:51;;;;;;;6.87;6.17;;;8.30;99.90;;;;;;5053390;28;20283;-61
2021/12/11 13:09:23;;;;;;;12.03;7.00;;;8.50;99.90;;;;;;5056564;28;20296;-59